createdAt,value
2023-10-28T00:02:07.069Z,44
2023-10-28T00:03:08.678Z,44
2023-10-28T00:04:09.961Z,44
2023-10-28T00:05:11.490Z,44
2023-10-28T00:06:12.937Z,44
2023-10-28T00:07:14.475Z,44
2023-10-28T00:08:15.911Z,44
2023-10-28T00:09:17.215Z,44
2023-10-28T00:10:18.558Z,44
2023-10-28T00:11:19.919Z,44
2023-10-28T00:12:21.333Z,44
2023-10-28T00:13:22.809Z,44
2023-10-28T00:14:24.181Z,44
2023-10-28T00:15:25.762Z,44
2023-10-28T00:16:27.175Z,44
2023-10-28T00:17:28.499Z,44
2023-10-28T00:18:29.782Z,44
2023-10-28T00:19:31.107Z,44
2023-10-28T00:20:32.421Z,44
2023-10-28T00:21:33.882Z,44
2023-10-28T00:22:35.216Z,44
2023-10-28T00:23:36.452Z,44
2023-10-28T00:24:37.899Z,44
2023-10-28T00:25:39.355Z,44
2023-10-28T00:26:40.617Z,44
2023-10-28T00:27:42.019Z,44
2023-10-28T00:28:43.391Z,44
2023-10-28T00:29:45.013Z,44
2023-10-28T00:30:46.010Z,44
2023-10-28T00:31:47.277Z,44
2023-10-28T00:32:48.694Z,44
2023-10-28T00:33:50.170Z,44
2023-10-28T00:34:51.595Z,44
2023-10-28T00:35:53.110Z,44
2023-10-28T00:36:54.524Z,44
2023-10-28T00:37:55.795Z,44
2023-10-28T00:38:57.081Z,44
2023-10-28T00:39:58.494Z,44
2023-10-28T00:40:59.884Z,44
2023-10-28T00:42:01.304Z,44
2023-10-28T00:43:02.717Z,44
2023-10-28T00:44:04.362Z,44
2023-10-28T00:45:05.782Z,44
2023-10-28T00:46:07.267Z,44
2023-10-28T00:47:08.643Z,44
2023-10-28T00:48:10.077Z,44
2023-10-28T00:49:11.429Z,44
2023-10-28T00:50:12.833Z,44
2023-10-28T00:51:14.160Z,44
2023-10-28T00:52:15.601Z,44
2023-10-28T00:53:16.872Z,44
2023-10-28T00:54:18.229Z,44
2023-10-28T00:55:19.648Z,44
2023-10-28T00:56:21.077Z,44
2023-10-28T00:57:22.443Z,44
2023-10-28T00:58:23.819Z,44
2023-10-28T00:59:25.121Z,44
2023-10-28T01:00:26.552Z,44
2023-10-28T01:01:27.946Z,44
2023-10-28T01:02:29.323Z,44
2023-10-28T01:03:30.687Z,44
2023-10-28T01:04:31.913Z,44
2023-10-28T01:05:33.234Z,44
2023-10-28T01:06:34.737Z,44
2023-10-28T01:07:36.161Z,44
2023-10-28T01:08:37.394Z,44
2023-10-28T01:09:38.717Z,44
2023-10-28T01:12:00.726Z,44
2023-10-28T01:13:02.132Z,44
2023-10-28T01:14:03.578Z,44
2023-10-28T01:15:04.912Z,44
2023-10-28T01:16:06.347Z,44
2023-10-28T01:17:07.638Z,44
2023-10-28T01:18:09.305Z,44
2023-10-28T01:19:10.645Z,44
2023-10-28T01:20:12.128Z,44
2023-10-28T01:21:13.648Z,44
2023-10-28T01:22:15.246Z,44
2023-10-28T01:23:16.748Z,44
2023-10-28T01:24:17.984Z,44
2023-10-28T01:25:19.340Z,44
2023-10-28T01:26:20.824Z,44
2023-10-28T01:27:22.811Z,44
2023-10-28T01:28:24.229Z,44
2023-10-28T01:29:25.602Z,44
2023-10-28T01:30:26.944Z,44
2023-10-28T01:31:28.440Z,44
2023-10-28T01:32:29.911Z,44
2023-10-28T01:33:31.318Z,44
2023-10-28T01:34:32.732Z,44
2023-10-28T01:35:34.045Z,44
2023-10-28T01:36:35.623Z,44
2023-10-28T01:37:37.215Z,44
2023-10-28T01:38:38.673Z,44
2023-10-28T01:39:39.926Z,44
2023-10-28T01:40:41.484Z,44
2023-10-28T01:41:43.128Z,44
2023-10-28T01:42:44.761Z,44
2023-10-28T01:43:46.217Z,44
2023-10-28T01:44:47.559Z,44
2023-10-28T01:45:49.087Z,44
2023-10-28T01:46:50.485Z,44
2023-10-28T01:47:51.887Z,44
2023-10-28T01:48:53.118Z,44
2023-10-28T01:49:54.672Z,44
2023-10-28T01:50:55.930Z,44
2023-10-28T01:51:57.314Z,44
2023-10-28T01:52:58.989Z,44
2023-10-28T01:54:00.472Z,44
2023-10-28T01:55:01.758Z,44
2023-10-28T01:56:03.145Z,44
2023-10-28T01:57:04.392Z,44
2023-10-28T01:58:05.755Z,44
2023-10-28T01:59:07.064Z,44
2023-10-28T02:00:11.333Z,44
2023-10-28T02:01:12.731Z,44
2023-10-28T02:02:14.131Z,44
2023-10-28T02:03:15.800Z,44
2023-10-28T02:04:17.124Z,44
2023-10-28T02:05:18.450Z,44
2023-10-28T02:06:19.678Z,44
2023-10-28T02:07:20.951Z,44
2023-10-28T02:08:22.285Z,44
2023-10-28T02:09:23.745Z,44
2023-10-28T02:10:25.043Z,44
2023-10-28T02:11:26.476Z,44
2023-10-28T02:12:28.024Z,44
2023-10-28T02:13:29.354Z,44
2023-10-28T02:14:30.737Z,44
2023-10-28T02:15:32.251Z,44
2023-10-28T02:16:33.528Z,44
2023-10-28T02:17:34.964Z,44
2023-10-28T02:18:36.379Z,44
2023-10-28T02:19:37.728Z,44
2023-10-28T02:20:39.021Z,44
2023-10-28T02:21:40.522Z,44
2023-10-28T02:22:41.834Z,44
2023-10-28T02:23:43.298Z,44
2023-10-28T02:24:44.720Z,44
2023-10-28T02:25:46.152Z,44
2023-10-28T02:26:47.632Z,44
2023-10-28T02:27:48.945Z,44
2023-10-28T02:28:50.268Z,44
2023-10-28T02:29:51.566Z,44
2023-10-28T02:30:52.934Z,44
2023-10-28T02:31:54.473Z,44
2023-10-28T02:32:55.874Z,44
2023-10-28T02:33:57.173Z,44
2023-10-28T02:34:58.515Z,44
2023-10-28T02:35:59.813Z,44
2023-10-28T02:37:01.139Z,44
2023-10-28T02:38:02.649Z,44
2023-10-28T02:39:03.898Z,44
2023-10-28T02:40:05.202Z,44
2023-10-28T02:41:06.496Z,44
2023-10-28T02:42:07.856Z,44
2023-10-28T02:43:09.164Z,44
2023-10-28T02:44:10.659Z,44
2023-10-28T02:45:11.896Z,44
2023-10-28T02:46:13.531Z,44
2023-10-28T02:47:14.813Z,44
2023-10-28T02:48:16.137Z,44
2023-10-28T02:49:17.372Z,44
2023-10-28T02:51:39.940Z,44
2023-10-28T02:52:41.368Z,44
2023-10-28T02:53:42.794Z,44
2023-10-28T02:54:44.262Z,44
2023-10-28T02:55:50.576Z,44
2023-10-28T02:56:51.920Z,44
2023-10-28T02:57:53.260Z,44
2023-10-28T02:58:54.661Z,44
2023-10-28T02:59:55.960Z,44
2023-10-28T03:00:57.549Z,44
2023-10-28T03:01:58.819Z,44
2023-10-28T03:03:00.356Z,44
2023-10-28T03:04:01.917Z,44
2023-10-28T03:05:03.458Z,44
2023-10-28T03:06:04.848Z,44
2023-10-28T03:07:06.295Z,44
2023-10-28T03:08:07.910Z,44
2023-10-28T03:09:09.503Z,44
2023-10-28T03:10:10.839Z,44
2023-10-28T03:11:12.496Z,44
2023-10-28T03:12:15.308Z,44
2023-10-28T03:13:15.236Z,44
2023-10-28T03:14:16.579Z,44
2023-10-28T03:15:17.976Z,44
2023-10-28T03:16:19.323Z,44
2023-10-28T03:17:20.878Z,44
2023-10-28T03:18:22.250Z,44
2023-10-28T03:19:23.633Z,44
2023-10-28T03:20:24.957Z,44
2023-10-28T03:21:26.514Z,44
2023-10-28T03:22:27.927Z,44
2023-10-28T03:23:29.289Z,44
2023-10-28T03:24:30.695Z,44
2023-10-28T03:25:32.058Z,44
2023-10-28T03:26:33.525Z,44
2023-10-28T03:27:34.935Z,44
2023-10-28T03:28:36.285Z,44
2023-10-28T03:29:37.684Z,44
2023-10-28T03:30:38.978Z,44
2023-10-28T03:31:40.676Z,44
2023-10-28T03:32:41.925Z,44
2023-10-28T03:33:43.422Z,44
2023-10-28T03:34:44.829Z,44
2023-10-28T03:35:46.152Z,44
2023-10-28T03:36:47.442Z,44
2023-10-28T03:37:48.827Z,44
2023-10-28T03:38:50.172Z,44
2023-10-28T03:39:51.513Z,44
2023-10-28T03:40:52.959Z,44
2023-10-28T03:41:54.448Z,44
2023-10-28T03:42:55.793Z,44
2023-10-28T03:43:57.102Z,44
2023-10-28T03:44:58.404Z,44
2023-10-28T03:45:59.749Z,44
2023-10-28T03:47:01.123Z,44
2023-10-28T03:48:02.726Z,44
2023-10-28T03:49:04.059Z,44
2023-10-28T03:50:05.488Z,44
2023-10-28T03:51:06.822Z,44
2023-10-28T03:52:08.282Z,44
2023-10-28T03:53:09.749Z,44
2023-10-28T03:54:11.144Z,44
2023-10-28T03:55:12.592Z,44
2023-10-28T03:56:13.990Z,44
2023-10-28T03:57:15.498Z,44
2023-10-28T03:58:16.762Z,44
2023-10-28T03:59:18.090Z,44
2023-10-28T04:00:19.581Z,44
2023-10-28T04:01:21.005Z,44
2023-10-28T04:02:22.354Z,44
2023-10-28T04:03:23.749Z,44
2023-10-28T04:04:25.210Z,44
2023-10-28T04:05:26.546Z,44
2023-10-28T04:06:27.814Z,44
2023-10-28T04:07:29.124Z,44
2023-10-28T04:08:30.445Z,44
2023-10-28T04:09:31.992Z,44
2023-10-28T04:10:33.435Z,44
2023-10-28T04:11:34.847Z,44
2023-10-28T04:12:36.291Z,44
2023-10-28T04:13:37.569Z,44
2023-10-28T04:14:44.440Z,44
2023-10-28T04:15:45.859Z,44
2023-10-28T04:16:47.221Z,44
2023-10-28T04:17:48.550Z,44
2023-10-28T04:18:49.994Z,44
2023-10-28T04:19:51.417Z,44
2023-10-28T04:20:52.978Z,44
2023-10-28T04:21:54.343Z,44
2023-10-28T04:22:55.830Z,44
2023-10-28T04:23:57.235Z,44
2023-10-28T04:24:58.619Z,44
2023-10-28T04:25:59.981Z,44
2023-10-28T04:27:01.339Z,44
2023-10-28T04:28:02.860Z,44
2023-10-28T04:29:04.085Z,44
2023-10-28T04:30:08.418Z,44
2023-10-28T04:31:09.832Z,44
2023-10-28T04:32:11.204Z,44
2023-10-28T04:33:12.773Z,44
2023-10-28T04:34:14.347Z,44
2023-10-28T04:35:26.840Z,44
2023-10-28T04:36:17.029Z,44
2023-10-28T04:37:18.437Z,44
2023-10-28T04:38:19.912Z,44
2023-10-28T04:39:21.199Z,44
2023-10-28T04:41:46.330Z,43
2023-10-28T04:42:47.851Z,43
2023-10-28T04:43:49.408Z,43
2023-10-28T04:44:50.921Z,43
2023-10-28T04:45:52.291Z,43
2023-10-28T04:46:53.666Z,43
2023-10-28T04:47:55.166Z,43
2023-10-28T04:48:56.471Z,43
2023-10-28T04:49:58.060Z,43
2023-10-28T04:50:59.417Z,43
2023-10-28T04:52:00.808Z,43
2023-10-28T04:53:02.294Z,44
2023-10-28T04:54:03.588Z,43
2023-10-28T04:55:04.955Z,43
2023-10-28T04:56:06.432Z,43
2023-10-28T04:57:07.790Z,43
2023-10-28T04:58:09.204Z,43
2023-10-28T04:59:10.720Z,43
2023-10-28T05:00:11.979Z,43
2023-10-28T05:01:13.407Z,43
2023-10-28T05:02:14.662Z,43
2023-10-28T05:03:17.462Z,43
2023-10-28T05:04:17.543Z,43
2023-10-28T05:05:19.126Z,43
2023-10-28T05:06:20.464Z,43
2023-10-28T05:07:21.772Z,43
2023-10-28T05:08:23.134Z,43
2023-10-28T05:09:24.472Z,43
2023-10-28T05:10:25.755Z,43
2023-10-28T05:11:27.114Z,43
2023-10-28T05:12:28.720Z,43
2023-10-28T05:13:29.979Z,44
2023-10-28T05:14:31.529Z,44
2023-10-28T05:15:32.853Z,44
2023-10-28T05:16:34.329Z,44
2023-10-28T05:17:35.792Z,44
2023-10-28T05:18:37.153Z,44
2023-10-28T05:19:38.622Z,44
2023-10-28T05:20:39.974Z,44
2023-10-28T05:21:41.271Z,44
2023-10-28T05:22:42.556Z,44
2023-10-28T05:23:44.290Z,44
2023-10-28T05:24:45.557Z,44
2023-10-28T05:25:47.178Z,44
2023-10-28T05:26:48.455Z,44
2023-10-28T05:27:49.969Z,44
2023-10-28T05:34:53.542Z,44
2023-10-28T05:35:55.035Z,44
2023-10-28T05:36:56.353Z,44
2023-10-28T05:37:57.914Z,44
2023-10-28T05:38:59.235Z,44
2023-10-28T05:40:00.655Z,44
2023-10-28T05:41:02.145Z,44
2023-10-28T05:42:03.658Z,44
2023-10-28T05:43:05.008Z,44
2023-10-28T05:44:06.433Z,44
2023-10-28T05:45:07.770Z,44
2023-10-28T05:46:09.166Z,44
2023-10-28T05:47:10.629Z,44
2023-10-28T05:48:11.975Z,44
2023-10-28T05:49:13.287Z,44
2023-10-28T05:50:14.877Z,44
2023-10-28T05:51:16.176Z,44
2023-10-28T05:52:17.540Z,44
2023-10-28T05:53:18.946Z,44
2023-10-28T05:54:20.200Z,44
2023-10-28T05:55:21.690Z,44
2023-10-28T05:56:23.016Z,44
2023-10-28T05:57:24.388Z,44
2023-10-28T05:58:25.775Z,44
2023-10-28T05:59:27.352Z,44
2023-10-28T06:00:29.050Z,44
2023-10-28T06:01:30.519Z,44
2023-10-28T06:02:31.971Z,44
2023-10-28T06:03:33.686Z,44
2023-10-28T06:04:35.282Z,44
2023-10-28T06:05:37.491Z,44
2023-10-28T06:06:39.263Z,44
2023-10-28T06:07:44.598Z,44
2023-10-28T06:08:47.921Z,44
2023-10-28T06:09:54.328Z,43
2023-10-28T06:10:56.701Z,43
2023-10-28T06:11:58.418Z,43
2023-10-28T06:13:00.214Z,43
2023-10-28T06:14:01.669Z,43
2023-10-28T06:15:05.583Z,43
2023-10-28T06:16:07.157Z,43
2023-10-28T06:17:08.618Z,43
2023-10-28T06:18:10.006Z,43
2023-10-28T06:19:11.437Z,43
2023-10-28T06:20:12.816Z,43
2023-10-28T06:21:14.117Z,43
2023-10-28T06:22:15.525Z,43
2023-10-28T06:23:16.944Z,43
2023-10-28T06:24:18.282Z,43
2023-10-28T06:25:19.539Z,43
2023-10-28T06:26:21.049Z,43
2023-10-28T06:27:22.448Z,43
2023-10-28T06:28:23.823Z,43
2023-10-28T06:29:25.372Z,43
2023-10-28T06:30:26.701Z,43
2023-10-28T06:31:27.988Z,43
2023-10-28T06:32:29.617Z,43
2023-10-28T06:33:30.885Z,43
2023-10-28T06:35:42.598Z,43
2023-10-28T06:36:44.249Z,43
2023-10-28T06:37:45.601Z,43
2023-10-28T06:38:46.958Z,43
2023-10-28T06:39:49.343Z,43
2023-10-28T06:40:49.650Z,43
2023-10-28T06:41:51.040Z,43
2023-10-28T06:42:52.371Z,43
2023-10-28T06:43:53.730Z,43
2023-10-28T06:44:55.008Z,43
2023-10-28T06:45:56.393Z,43
2023-10-28T06:46:57.809Z,43
2023-10-28T06:47:59.146Z,43
2023-10-28T06:49:00.588Z,43
2023-10-28T06:50:01.999Z,43
2023-10-28T06:51:03.467Z,43
2023-10-28T06:52:04.930Z,43
2023-10-28T06:53:06.495Z,43
2023-10-28T06:54:07.759Z,43
2023-10-28T06:55:09.088Z,43
2023-10-28T06:56:10.525Z,43
2023-10-28T06:57:12.012Z,43
2023-10-28T06:58:13.340Z,43
2023-10-28T06:59:14.674Z,43
2023-10-28T07:00:16.157Z,43
2023-10-28T07:01:17.525Z,43
2023-10-28T07:02:18.937Z,42
2023-10-28T07:03:20.368Z,42
2023-10-28T07:04:21.908Z,42
2023-10-28T07:05:23.577Z,42
2023-10-28T07:06:25.064Z,42
2023-10-28T07:07:26.702Z,42
2023-10-28T07:08:28.123Z,42
2023-10-28T07:09:29.503Z,42
2023-10-28T07:10:31.086Z,43
2023-10-28T07:11:32.416Z,43
2023-10-28T07:12:33.729Z,43
2023-10-28T07:13:35.066Z,43
2023-10-28T07:14:36.432Z,43
2023-10-28T07:15:37.796Z,43
2023-10-28T07:16:39.365Z,43
2023-10-28T07:17:40.754Z,44
2023-10-28T07:18:42.140Z,43
2023-10-28T07:19:43.561Z,44
2023-10-28T07:20:45.269Z,44
2023-10-28T07:21:46.663Z,44
2023-10-28T07:22:48.130Z,44
2023-10-28T07:23:49.408Z,44
2023-10-28T07:24:50.879Z,44
2023-10-28T07:25:52.318Z,44
2023-10-28T07:26:53.743Z,44
2023-10-28T07:27:55.087Z,44
2023-10-28T07:28:56.574Z,44
2023-10-28T07:29:57.974Z,44
2023-10-28T07:30:59.472Z,44
2023-10-28T07:32:00.930Z,44
2023-10-28T07:33:02.465Z,44
2023-10-28T07:34:03.606Z,44
2023-10-28T07:35:04.927Z,44
2023-10-28T07:36:06.263Z,44
2023-10-28T07:37:07.684Z,44
2023-10-28T07:38:09.167Z,44
2023-10-28T07:40:30.493Z,45
2023-10-28T07:41:31.918Z,45
2023-10-28T07:42:33.440Z,45
2023-10-28T07:43:34.974Z,45
2023-10-28T07:44:36.493Z,46
2023-10-28T07:45:37.855Z,46
2023-10-28T07:46:39.292Z,46
2023-10-28T07:47:40.708Z,46
2023-10-28T07:48:42.089Z,46
2023-10-28T07:49:43.612Z,46
2023-10-28T07:50:45.135Z,46
2023-10-28T07:51:46.845Z,46
2023-10-28T07:52:48.219Z,46
2023-10-28T07:53:49.723Z,46
2023-10-28T07:54:51.310Z,46
2023-10-28T07:55:52.817Z,46
2023-10-28T07:56:54.232Z,47
2023-10-28T07:57:55.796Z,47
2023-10-28T07:58:57.161Z,47
2023-10-28T07:59:58.486Z,47
2023-10-28T08:01:00.445Z,48
2023-10-28T08:02:10.672Z,48
2023-10-28T08:03:10.096Z,48
2023-10-28T08:04:11.456Z,48
2023-10-28T08:05:15.868Z,48
2023-10-28T08:06:24.183Z,48
2023-10-28T08:07:18.682Z,48
2023-10-28T08:08:20.262Z,49
2023-10-28T08:09:21.758Z,49
2023-10-28T08:10:23.157Z,49
2023-10-28T08:11:25.035Z,49
2023-10-28T08:12:26.569Z,49
2023-10-28T08:13:28.093Z,49
2023-10-28T08:14:29.927Z,49
2023-10-28T08:15:31.178Z,49
2023-10-28T08:16:32.605Z,49
2023-10-28T08:17:33.994Z,49
2023-10-28T08:18:40.841Z,48
2023-10-28T08:19:45.748Z,49
2023-10-28T08:20:47.076Z,49
2023-10-28T08:21:48.643Z,49
2023-10-28T08:22:53.002Z,49
2023-10-28T08:23:54.586Z,49
2023-10-28T08:24:56.257Z,49
2023-10-28T08:25:57.825Z,49
2023-10-28T08:28:01.069Z,49
2023-10-28T08:29:02.417Z,49
2023-10-28T08:30:03.787Z,49
2023-10-28T08:31:05.165Z,49
2023-10-28T08:32:06.600Z,49
2023-10-28T08:33:08.249Z,49
2023-10-28T08:34:09.687Z,49
2023-10-28T08:35:11.470Z,49
2023-10-28T08:36:12.940Z,49
2023-10-28T08:37:14.371Z,49
2023-10-28T08:38:16.050Z,50
2023-10-28T08:39:17.535Z,50
2023-10-28T08:40:19.109Z,51
2023-10-28T08:41:20.394Z,51
2023-10-28T08:42:21.774Z,53
2023-10-28T08:43:23.469Z,52
2023-10-28T08:44:24.974Z,49
2023-10-28T08:45:26.352Z,49
2023-10-28T08:46:27.677Z,49
2023-10-28T08:47:29.220Z,48
2023-10-28T08:48:30.500Z,48
2023-10-28T08:49:31.954Z,47
2023-10-28T08:50:33.259Z,47
2023-10-28T08:51:34.520Z,47
2023-10-28T08:52:35.836Z,47
2023-10-28T08:53:37.413Z,47
2023-10-28T08:54:38.882Z,46
2023-10-28T08:55:40.375Z,46
2023-10-28T08:56:41.680Z,46
2023-10-28T08:57:43.073Z,46
2023-10-28T08:58:44.424Z,46
2023-10-28T08:59:46.005Z,46
2023-10-28T09:00:48.200Z,47
2023-10-28T09:01:48.858Z,47
2023-10-28T09:02:50.460Z,47
2023-10-28T09:03:51.824Z,47
2023-10-28T09:04:53.240Z,47
2023-10-28T09:05:54.634Z,47
2023-10-28T09:06:56.112Z,47
2023-10-28T09:07:57.667Z,47
2023-10-28T09:08:59.029Z,47
2023-10-28T09:10:00.656Z,47
2023-10-28T09:11:01.945Z,48
2023-10-28T09:12:03.415Z,48
2023-10-28T09:13:04.907Z,48
2023-10-28T09:14:06.393Z,48
2023-10-28T09:15:07.992Z,48
2023-10-28T09:16:09.474Z,48
2023-10-28T09:17:10.847Z,48
2023-10-28T09:18:12.206Z,48
2023-10-28T09:19:13.535Z,48
2023-10-28T09:20:14.976Z,48
2023-10-28T09:21:16.352Z,48
2023-10-28T09:22:17.598Z,48
2023-10-28T09:23:19.098Z,48
2023-10-28T09:24:20.433Z,47
2023-10-28T09:25:21.928Z,47
2023-10-28T09:26:23.329Z,47
2023-10-28T09:27:24.685Z,47
2023-10-28T09:28:26.069Z,47
2023-10-28T09:29:27.620Z,47
2023-10-28T09:30:29.125Z,47
2023-10-28T09:31:30.370Z,47
2023-10-28T09:32:31.719Z,47
2023-10-28T09:33:33.246Z,47
2023-10-28T09:34:34.489Z,46
2023-10-28T09:35:35.939Z,46
2023-10-28T09:36:37.180Z,46
2023-10-28T09:37:38.820Z,46
2023-10-28T09:38:40.167Z,46
2023-10-28T09:39:41.484Z,46
2023-10-28T09:40:42.800Z,46
2023-10-28T09:41:44.246Z,46
2023-10-28T09:42:45.639Z,46
2023-10-28T09:43:47.011Z,46
2023-10-28T09:44:48.435Z,46
2023-10-28T09:45:49.777Z,46
2023-10-28T09:46:51.275Z,45
2023-10-28T09:47:52.723Z,45
2023-10-28T09:48:54.293Z,45
2023-10-28T09:49:55.944Z,45
2023-10-28T09:50:57.469Z,45
2023-10-28T09:51:58.917Z,45
2023-10-28T09:53:00.560Z,45
2023-10-28T09:54:02.001Z,45
2023-10-28T09:55:03.542Z,45
2023-10-28T09:56:05.301Z,45
2023-10-28T09:57:06.810Z,45
2023-10-28T09:58:08.266Z,45
2023-10-28T09:59:09.694Z,45
2023-10-28T10:00:11.507Z,45
2023-10-28T10:01:12.978Z,45
2023-10-28T10:02:14.470Z,45
2023-10-28T10:03:15.734Z,45
2023-10-28T10:04:17.084Z,44
2023-10-28T10:05:18.480Z,44
2023-10-28T10:06:19.900Z,44
2023-10-28T10:07:21.438Z,44
2023-10-28T10:08:23.037Z,44
2023-10-28T10:09:24.393Z,44
2023-10-28T10:10:26.003Z,44
2023-10-28T10:11:31.906Z,44
2023-10-28T10:12:33.389Z,44
2023-10-28T10:13:34.691Z,44
2023-10-28T10:14:36.225Z,44
2023-10-28T10:15:37.669Z,44
2023-10-28T10:16:38.993Z,44
2023-10-28T10:17:40.513Z,44
2023-10-28T10:18:41.733Z,44
2023-10-28T10:19:43.053Z,44
2023-10-28T10:20:44.549Z,44
2023-10-28T10:21:46.011Z,44
2023-10-28T10:22:47.443Z,44
2023-10-28T10:23:48.862Z,44
2023-10-28T10:24:50.355Z,44
2023-10-28T10:25:51.741Z,44
2023-10-28T10:26:53.016Z,44
2023-10-28T10:27:54.386Z,44
2023-10-28T10:28:55.864Z,44
2023-10-28T10:29:57.210Z,44
2023-10-28T10:30:58.676Z,44
2023-10-28T10:32:00.037Z,44
2023-10-28T10:33:01.638Z,44
2023-10-28T10:34:02.826Z,44
2023-10-28T10:36:24.658Z,44
2023-10-28T10:37:26.072Z,44
2023-10-28T10:38:27.355Z,44
2023-10-28T10:39:28.766Z,44
2023-10-28T10:40:30.103Z,44
2023-10-28T10:41:31.687Z,44
2023-10-28T10:42:32.997Z,45
2023-10-28T10:43:34.458Z,45
2023-10-28T10:44:39.581Z,45
2023-10-28T10:45:43.695Z,45
2023-10-28T10:46:45.139Z,45
2023-10-28T10:47:46.774Z,45
2023-10-28T10:48:48.472Z,45
2023-10-28T10:49:49.401Z,45
2023-10-28T10:50:50.735Z,45
2023-10-28T10:51:52.209Z,45
2023-10-28T10:52:53.701Z,45
2023-10-28T10:53:54.928Z,45
2023-10-28T10:54:56.199Z,45
2023-10-28T10:55:57.567Z,45
2023-10-28T10:56:58.849Z,44
2023-10-28T10:58:00.206Z,44
2023-10-28T10:59:01.618Z,44
2023-10-28T11:00:03.325Z,44
2023-10-28T11:01:08.711Z,44
2023-10-28T11:02:06.341Z,44
2023-10-28T11:03:07.820Z,44
2023-10-28T11:04:09.280Z,44
2023-10-28T11:05:10.816Z,44
2023-10-28T11:06:12.157Z,44
2023-10-28T11:07:13.536Z,44
2023-10-28T11:08:14.944Z,44
2023-10-28T11:09:16.254Z,44
2023-10-28T11:10:17.553Z,44
2023-10-28T11:11:19.044Z,44
2023-10-28T11:12:20.465Z,44
2023-10-28T11:13:21.977Z,44
2023-10-28T11:14:23.578Z,44
2023-10-28T11:15:25.372Z,44
2023-10-28T11:16:26.805Z,44
2023-10-28T11:17:28.217Z,44
2023-10-28T11:18:29.669Z,44
2023-10-28T11:19:31.088Z,44
2023-10-28T11:20:32.540Z,44
2023-10-28T11:21:33.906Z,44
2023-10-28T11:22:35.267Z,44
2023-10-28T11:23:36.574Z,44
2023-10-28T11:24:37.949Z,44
2023-10-28T11:25:39.269Z,44
2023-10-28T11:26:40.653Z,44
2023-10-28T11:27:41.994Z,45
2023-10-28T11:28:43.303Z,45
2023-10-28T11:29:44.607Z,45
2023-10-28T11:30:46.071Z,45
2023-10-28T11:31:47.417Z,45
2023-10-28T11:32:48.770Z,45
2023-10-28T11:33:50.080Z,45
2023-10-28T11:36:11.801Z,45
2023-10-28T11:37:13.571Z,45
2023-10-28T11:38:15.247Z,45
2023-10-28T11:39:16.941Z,45
2023-10-28T11:40:18.504Z,45
2023-10-28T11:41:20.009Z,45
2023-10-28T11:42:21.571Z,45
2023-10-28T11:43:23.191Z,45
2023-10-28T11:44:24.623Z,45
2023-10-28T11:45:26.189Z,45
2023-10-28T11:46:27.701Z,45
2023-10-28T11:47:29.213Z,45
2023-10-28T11:48:30.491Z,45
2023-10-28T11:49:31.838Z,45
2023-10-28T11:50:33.210Z,45
2023-10-28T11:51:34.754Z,45
2023-10-28T11:52:36.380Z,45
2023-10-28T11:53:38.028Z,45
2023-10-28T11:54:39.464Z,45
2023-10-28T11:55:40.747Z,45
2023-10-28T11:56:42.332Z,45
2023-10-28T11:57:43.813Z,45
2023-10-28T11:58:45.468Z,44
2023-10-28T11:59:46.910Z,44
2023-10-28T12:00:48.601Z,44
2023-10-28T12:01:54.766Z,44
2023-10-28T12:02:54.544Z,44
2023-10-28T12:03:56.075Z,44
2023-10-28T12:04:57.502Z,44
2023-10-28T12:05:58.954Z,44
2023-10-28T12:07:00.288Z,44
2023-10-28T12:08:01.823Z,44
2023-10-28T12:09:03.166Z,44
2023-10-28T12:10:07.563Z,44
2023-10-28T12:11:09.171Z,44
2023-10-28T12:12:10.850Z,44
2023-10-28T12:13:12.244Z,44
2023-10-28T12:14:13.903Z,44
2023-10-28T12:15:15.276Z,44
2023-10-28T12:16:16.833Z,44
2023-10-28T12:17:18.435Z,44
2023-10-28T12:18:19.903Z,44
2023-10-28T12:19:21.546Z,44
2023-10-28T12:20:23.167Z,44
2023-10-28T12:21:24.748Z,44
2023-10-28T12:22:26.148Z,44
2023-10-28T12:23:27.538Z,44
2023-10-28T12:24:28.944Z,44
2023-10-28T12:26:23.631Z,44
2023-10-28T12:27:24.883Z,44
2023-10-28T12:28:26.285Z,44
2023-10-28T12:29:27.698Z,44
2023-10-28T12:30:29.050Z,44
2023-10-28T12:31:30.886Z,44
2023-10-28T12:32:32.368Z,44
2023-10-28T12:33:35.700Z,44
2023-10-28T12:34:35.363Z,44
2023-10-28T12:35:36.878Z,44
2023-10-28T12:36:38.366Z,44
2023-10-28T12:37:39.888Z,44
2023-10-28T12:38:41.453Z,44
2023-10-28T12:39:43.077Z,44
2023-10-28T12:40:44.486Z,44
2023-10-28T12:41:46.156Z,44
2023-10-28T12:42:47.653Z,44
2023-10-28T12:43:49.164Z,44
2023-10-28T12:44:50.932Z,44
2023-10-28T12:45:52.372Z,44
2023-10-28T12:46:53.726Z,44
2023-10-28T12:47:55.278Z,44
2023-10-28T12:48:56.674Z,44
2023-10-28T12:49:58.058Z,44
2023-10-28T12:50:59.393Z,44
2023-10-28T12:52:00.856Z,44
2023-10-28T12:53:02.349Z,44
2023-10-28T12:54:03.715Z,44
2023-10-28T12:55:05.115Z,44
2023-10-28T12:56:06.532Z,44
2023-10-28T12:57:11.196Z,44
2023-10-28T12:58:17.744Z,44
2023-10-28T12:59:16.826Z,44
2023-10-28T13:00:20.938Z,44
2023-10-28T13:01:22.488Z,44
2023-10-28T13:02:24.045Z,44
2023-10-28T13:03:25.519Z,44
2023-10-28T13:05:37.487Z,44
2023-10-28T13:06:38.989Z,44
2023-10-28T13:07:40.522Z,44
2023-10-28T13:08:41.937Z,44
2023-10-28T13:09:43.401Z,44
2023-10-28T13:10:44.935Z,44
2023-10-28T13:11:46.447Z,44
2023-10-28T13:12:47.890Z,44
2023-10-28T13:13:49.247Z,44
2023-10-28T13:14:50.741Z,44
2023-10-28T13:15:52.157Z,44
2023-10-28T13:16:55.043Z,44
2023-10-28T13:17:55.184Z,44
2023-10-28T13:18:56.625Z,44
2023-10-28T13:19:58.160Z,44
2023-10-28T13:22:01.445Z,44
2023-10-28T13:23:03.077Z,44
2023-10-28T13:24:04.500Z,44
2023-10-28T13:25:05.900Z,44
2023-10-28T13:26:07.452Z,44
2023-10-28T13:27:08.989Z,44
2023-10-28T13:28:10.519Z,44
2023-10-28T13:29:12.239Z,44
2023-10-28T13:30:13.854Z,44
2023-10-28T13:31:15.553Z,44
2023-10-28T13:32:16.884Z,44
2023-10-28T13:33:18.419Z,44
2023-10-28T13:34:19.798Z,44
2023-10-28T13:36:41.707Z,43
2023-10-28T13:37:43.202Z,43
2023-10-28T13:38:44.583Z,43
2023-10-28T13:39:46.063Z,43
2023-10-28T13:40:47.262Z,44
2023-10-28T13:41:48.732Z,44
2023-10-28T13:42:50.233Z,43
2023-10-28T13:43:51.827Z,43
2023-10-28T13:44:53.469Z,43
2023-10-28T13:45:55.026Z,43
2023-10-28T13:46:56.555Z,43
2023-10-28T13:47:58.285Z,43
2023-10-28T13:48:59.776Z,43
2023-10-28T13:50:01.342Z,43
2023-10-28T13:51:02.880Z,43
2023-10-28T13:52:04.432Z,43
2023-10-28T13:53:05.965Z,43
2023-10-28T13:54:07.612Z,43
2023-10-28T13:55:09.317Z,43
2023-10-28T13:56:10.744Z,43
2023-10-28T13:57:12.131Z,43
2023-10-28T13:58:13.674Z,43
2023-10-28T13:59:15.232Z,43
2023-10-28T14:00:16.908Z,43
2023-10-28T14:01:18.414Z,43
2023-10-28T14:02:19.944Z,43
2023-10-28T14:03:21.528Z,43
2023-10-28T14:04:23.048Z,43
2023-10-28T14:05:24.582Z,43
2023-10-28T14:06:26.163Z,43
2023-10-28T14:07:27.706Z,43
2023-10-28T14:08:29.745Z,43
2023-10-28T14:09:31.656Z,43
2023-10-28T14:10:33.170Z,43
2023-10-28T14:11:34.805Z,43
2023-10-28T14:12:36.330Z,43
2023-10-28T14:13:37.458Z,43
2023-10-28T14:14:38.992Z,43
2023-10-28T14:15:40.408Z,43
2023-10-28T14:16:41.924Z,43
2023-10-28T14:17:43.354Z,43
2023-10-28T14:18:44.724Z,43
2023-10-28T14:19:46.414Z,43
2023-10-28T14:20:47.732Z,43
2023-10-28T14:21:49.177Z,43
2023-10-28T14:22:51.137Z,43
2023-10-28T14:23:52.250Z,43
2023-10-28T14:24:53.724Z,43
2023-10-28T14:25:55.475Z,43
2023-10-28T14:26:57.012Z,43
2023-10-28T14:27:58.622Z,43
2023-10-28T14:29:00.117Z,43
2023-10-28T14:30:01.750Z,43
2023-10-28T14:31:03.478Z,43
2023-10-28T14:32:04.846Z,43
2023-10-28T14:33:06.198Z,43
2023-10-28T14:34:07.910Z,43
2023-10-28T14:35:09.403Z,43
2023-10-28T14:36:11.041Z,43
2023-10-28T14:37:12.669Z,43
2023-10-28T14:38:14.194Z,43
2023-10-28T14:39:15.874Z,43
2023-10-28T14:40:17.338Z,43
2023-10-28T14:41:18.967Z,43
2023-10-28T14:42:20.318Z,43
2023-10-28T14:43:21.693Z,43
2023-10-28T14:44:23.196Z,43
2023-10-28T14:45:24.559Z,43
2023-10-28T14:46:26.049Z,43
2023-10-28T14:47:27.732Z,43
2023-10-28T14:48:28.967Z,43
2023-10-28T14:49:30.392Z,43
2023-10-28T14:50:31.872Z,43
2023-10-28T14:51:33.576Z,43
2023-10-28T14:52:35.315Z,43
2023-10-28T14:53:36.846Z,43
2023-10-28T14:54:38.169Z,43
2023-10-28T14:55:39.704Z,43
2023-10-28T14:56:41.072Z,43
2023-10-28T14:57:53.765Z,43
2023-10-28T14:58:44.194Z,43
2023-10-28T14:59:48.688Z,43